createdAt,value
2023-04-15T00:02:22.184Z,89.13
2023-04-15T00:05:30.910Z,89.32
2023-04-15T00:08:42.267Z,88.14
2023-04-15T00:11:51.119Z,87.52
2023-04-15T00:15:06.506Z,88.03
2023-04-15T00:18:08.296Z,88.29
2023-04-15T00:21:23.452Z,88.61
2023-04-15T00:24:41.461Z,88.86
2023-04-15T00:27:58.954Z,88.95
2023-04-15T00:31:07.533Z,88.93
2023-04-15T00:34:25.752Z,88.99
2023-04-15T00:37:45.568Z,88.74
2023-04-15T00:41:01.010Z,89.34
2023-04-15T00:44:15.709Z,89.46
2023-04-15T00:47:35.592Z,88.94
2023-04-15T00:50:52.441Z,88.83
2023-04-15T00:54:05.472Z,88.75
2023-04-15T00:57:14.027Z,88.22
2023-04-15T01:00:23.500Z,88.33
2023-04-15T01:03:51.522Z,88.16
2023-04-15T01:07:09.797Z,88.23
2023-04-15T01:10:24.585Z,87.64
2023-04-15T01:13:49.469Z,87.93
2023-04-15T01:17:14.557Z,88.20
2023-04-15T01:20:26.657Z,88.43
2023-04-15T01:23:44.718Z,88.26
2023-04-15T01:26:56.149Z,88.05
2023-04-15T01:30:15.694Z,88.02
2023-04-15T01:33:23.530Z,87.98
2023-04-15T01:36:39.490Z,87.86
2023-04-15T01:39:48.266Z,87.75
2023-04-15T01:43:02.575Z,87.59
2023-04-15T01:46:11.356Z,87.38
2023-04-15T01:49:19.485Z,87.03
2023-04-15T01:52:34.521Z,87.72
2023-04-15T01:55:36.381Z,87.46
2023-04-15T01:58:51.551Z,87.64
2023-04-15T02:02:02.733Z,87.44
2023-04-15T02:05:11.492Z,86.86
2023-04-15T02:08:26.501Z,87.31
2023-04-15T02:11:35.514Z,87.44
2023-04-15T02:14:46.593Z,87.58
2023-04-15T02:21:19.670Z,87.98
2023-04-15T02:24:27.785Z,88.38
2023-04-15T02:27:42.566Z,88.48
2023-04-15T02:30:49.507Z,88.16
2023-04-15T02:34:06.794Z,88.41
2023-04-15T02:37:16.528Z,88.41
2023-04-15T02:40:41.058Z,88.30
2023-04-15T02:43:50.526Z,88.24
2023-04-15T02:47:19.561Z,88.38
2023-04-15T02:50:35.533Z,89.03
2023-04-15T02:53:44.091Z,89.77
2023-04-15T02:56:52.822Z,89.83
2023-04-15T03:00:10.524Z,89.63
2023-04-15T03:03:12.503Z,89.29
2023-04-15T03:06:27.893Z,89.46
2023-04-15T03:09:36.585Z,89.80
2023-04-15T03:12:51.760Z,89.78
2023-04-15T03:15:54.150Z,89.67
2023-04-15T03:19:09.538Z,89.92
2023-04-15T03:22:11.206Z,90.12
2023-04-15T03:25:26.574Z,90.21
2023-04-15T03:28:36.988Z,90.38
2023-04-15T03:31:51.545Z,90.66
2023-04-15T03:34:53.254Z,90.89
2023-04-15T03:38:07.563Z,90.65
2023-04-15T03:41:22.584Z,91.03
2023-04-15T03:44:38.254Z,91.01
2023-04-15T03:47:40.246Z,91.14
2023-04-15T03:50:54.589Z,91.13
2023-04-15T03:54:03.234Z,91.57
2023-04-15T03:57:11.586Z,91.40
2023-04-15T04:00:26.568Z,91.22
2023-04-15T04:03:28.523Z,91.40
2023-04-15T04:06:43.650Z,91.62
2023-04-15T04:09:53.356Z,91.87
2023-04-15T04:13:07.638Z,91.72
2023-04-15T04:16:09.346Z,91.30
2023-04-15T04:19:28.649Z,91.86
2023-04-15T04:22:36.560Z,91.78
2023-04-15T04:25:45.470Z,91.47
2023-04-15T04:28:53.709Z,91.46
2023-04-15T04:32:02.624Z,91.62
2023-04-15T04:35:12.056Z,91.88
2023-04-15T04:38:27.618Z,91.74
2023-04-15T04:41:42.853Z,91.70
2023-04-15T04:44:51.577Z,91.78
2023-04-15T04:48:00.165Z,91.39
2023-04-15T04:51:09.067Z,90.88
2023-04-15T04:54:21.598Z,90.62
2023-04-15T04:57:36.556Z,90.35
2023-04-15T05:00:53.775Z,90.05
2023-04-15T05:04:08.666Z,89.92
2023-04-15T05:07:18.114Z,89.44
2023-04-15T05:10:35.741Z,89.16
2023-04-15T05:13:51.889Z,88.99
2023-04-15T05:16:56.611Z,88.57
2023-04-15T05:20:14.634Z,87.83
2023-04-15T05:23:23.279Z,87.11
2023-04-15T05:26:31.654Z,87.15
2023-04-15T05:29:40.070Z,87.47
2023-04-15T05:32:48.658Z,88.58
2023-04-15T05:36:03.635Z,88.42
2023-04-15T05:39:06.660Z,88.12
2023-04-15T05:42:31.608Z,88.68
2023-04-15T05:45:33.271Z,88.93
2023-04-15T05:48:48.892Z,89.19
2023-04-15T05:51:51.073Z,89.00
2023-04-15T05:55:05.682Z,88.99
2023-04-15T05:58:13.660Z,89.18
2023-04-15T06:01:28.677Z,89.22
2023-04-15T06:04:37.752Z,89.56
2023-04-15T06:08:04.228Z,89.67
2023-04-15T06:11:05.883Z,89.61
2023-04-15T06:14:20.616Z,89.87
2023-04-15T06:17:22.443Z,90.73
2023-04-15T06:20:36.938Z,91.23
2023-04-15T06:23:45.714Z,91.07
2023-04-15T06:26:53.672Z,90.96
2023-04-15T06:30:02.213Z,90.31
2023-04-15T06:33:12.741Z,89.78
2023-04-15T06:36:21.569Z,89.17
2023-04-15T06:39:45.686Z,87.87
2023-04-15T06:43:01.662Z,87.07
2023-04-15T06:46:21.674Z,85.86
2023-04-15T06:49:30.303Z,85.64
2023-04-15T06:52:38.667Z,85.24
2023-04-15T06:55:53.688Z,86.28
2023-04-15T06:59:07.667Z,86.17
2023-04-15T07:02:16.523Z,85.71
2023-04-15T07:05:24.933Z,84.56
2023-04-15T07:08:34.638Z,84.32
2023-04-15T07:11:43.668Z,83.81
2023-04-15T07:14:58.693Z,83.43
2023-04-15T07:18:09.824Z,83.31
2023-04-15T07:21:18.184Z,82.05
2023-04-15T07:24:26.688Z,81.81
2023-04-15T07:27:43.773Z,80.33
2023-04-15T07:30:50.814Z,80.08
2023-04-15T07:34:05.653Z,78.94
2023-04-15T07:37:13.989Z,78.26
2023-04-15T07:40:35.694Z,76.80
2023-04-15T07:43:44.851Z,76.50
2023-04-15T07:47:01.226Z,77.97
2023-04-15T07:50:03.005Z,77.44
2023-04-15T07:53:17.711Z,76.30
2023-04-15T07:59:49.441Z,74.27
2023-04-15T08:02:58.170Z,73.58
2023-04-15T08:06:07.118Z,70.30
2023-04-15T08:09:24.055Z,69.26
2023-04-15T08:12:35.748Z,68.98
2023-04-15T08:15:45.749Z,69.44
2023-04-15T08:18:57.033Z,68.21
2023-04-15T08:22:18.100Z,68.04
2023-04-15T08:25:27.944Z,68.59
2023-04-15T08:28:49.714Z,67.05
2023-04-15T08:32:06.702Z,66.26
2023-04-15T08:35:18.123Z,66.46
2023-04-15T08:38:31.368Z,66.10
2023-04-15T08:41:51.697Z,66.03
2023-04-15T08:45:06.714Z,66.29
2023-04-15T08:48:10.067Z,64.89
2023-04-15T08:51:25.111Z,64.87
2023-04-15T08:54:27.578Z,64.20
2023-04-15T08:57:46.682Z,64.01
2023-04-15T09:00:49.054Z,64.00
2023-04-15T09:04:09.759Z,62.22
2023-04-15T09:07:11.802Z,60.81
2023-04-15T09:10:31.777Z,61.23
2023-04-15T09:13:48.997Z,60.90
2023-04-15T09:17:09.702Z,59.20
2023-04-15T09:20:19.066Z,60.65
2023-04-15T09:23:27.785Z,61.05
2023-04-15T09:26:37.939Z,62.92
2023-04-15T09:29:47.769Z,61.32
2023-04-15T09:33:03.550Z,60.61
2023-04-15T09:36:17.755Z,60.27
2023-04-15T09:39:30.822Z,61.39
2023-04-15T09:42:59.569Z,60.90
2023-04-15T09:46:11.175Z,59.42
2023-04-15T09:49:20.295Z,59.88
2023-04-15T09:52:48.850Z,61.63
2023-04-15T09:56:07.502Z,61.74
2023-04-15T09:59:10.298Z,62.50
2023-04-15T10:02:26.852Z,62.95
2023-04-15T10:05:35.763Z,63.49
2023-04-15T10:08:54.440Z,64.23
2023-04-15T10:12:02.828Z,64.46
2023-04-15T10:18:43.735Z,63.96
2023-04-15T10:21:53.132Z,63.11
2023-04-15T10:25:06.788Z,64.63
2023-04-15T10:28:22.967Z,65.35
2023-04-15T10:31:35.823Z,64.59
2023-04-15T10:34:54.861Z,60.51
2023-04-15T10:37:56.643Z,60.10
2023-04-15T10:41:30.790Z,61.10
2023-04-15T10:44:43.800Z,61.04
2023-04-15T10:48:04.826Z,61.81
2023-04-15T10:51:21.501Z,62.88
2023-04-15T10:54:40.813Z,64.13
2023-04-15T10:57:48.141Z,64.87
2023-04-15T11:01:05.185Z,65.84
2023-04-15T11:04:07.293Z,66.76
2023-04-15T11:07:21.741Z,68.97
2023-04-15T11:10:58.884Z,70.36
2023-04-15T11:14:20.634Z,72.48
2023-04-15T11:17:37.058Z,71.00
2023-04-15T11:20:56.607Z,69.01
2023-04-15T11:24:07.483Z,66.59
2023-04-15T11:27:15.769Z,65.79
2023-04-15T11:30:26.405Z,65.01
2023-04-15T11:33:39.460Z,62.32
2023-04-15T11:36:56.841Z,61.85
2023-04-15T11:40:03.215Z,62.62
2023-04-15T11:43:26.831Z,61.50
2023-04-15T11:46:30.827Z,61.17
2023-04-15T11:49:46.097Z,59.97
2023-04-15T11:52:57.435Z,60.83
2023-04-15T11:56:15.779Z,63.14
2023-04-15T11:59:44.302Z,62.64
2023-04-15T12:02:47.161Z,64.32
2023-04-15T12:06:28.801Z,65.55
2023-04-15T12:09:39.854Z,66.73
2023-04-15T12:12:56.998Z,66.70
2023-04-15T12:16:05.521Z,63.54
2023-04-15T12:19:22.101Z,61.60
2023-04-15T12:22:30.803Z,61.37
2023-04-15T12:25:42.143Z,61.86
2023-04-15T12:28:50.798Z,63.57
2023-04-15T12:32:13.290Z,65.31
2023-04-15T12:35:21.813Z,66.80
2023-04-15T12:38:45.823Z,66.35
2023-04-15T12:41:47.518Z,64.26
2023-04-15T12:45:02.709Z,64.32
2023-04-15T12:48:11.846Z,65.11
2023-04-15T12:51:20.923Z,65.29
2023-04-15T12:54:31.852Z,65.96
2023-04-15T13:01:02.869Z,67.05
2023-04-15T13:04:11.432Z,66.07
2023-04-15T13:07:22.849Z,66.60
2023-04-15T13:10:31.737Z,67.01
2023-04-15T13:13:43.120Z,67.05
2023-04-15T13:16:57.934Z,67.47
2023-04-15T13:20:10.322Z,68.04
2023-04-15T13:23:19.527Z,67.71
2023-04-15T13:26:27.546Z,68.08
2023-04-15T13:29:39.073Z,68.11
2023-04-15T13:32:57.181Z,67.12
2023-04-15T13:39:42.621Z,64.60
2023-04-15T13:42:53.787Z,64.44
2023-04-15T13:46:09.172Z,64.79
2023-04-15T13:49:11.051Z,64.29
2023-04-15T13:52:25.921Z,63.49
2023-04-15T13:55:43.960Z,63.98
2023-04-15T13:58:45.818Z,64.39
2023-04-15T14:02:01.045Z,65.53
2023-04-15T14:05:13.874Z,66.90
2023-04-15T14:08:23.885Z,66.19
2023-04-15T14:11:34.186Z,65.66
2023-04-15T14:14:48.902Z,65.94
2023-04-15T14:17:50.713Z,63.65
2023-04-15T14:21:05.895Z,63.49
2023-04-15T14:24:14.415Z,65.01
2023-04-15T14:27:23.893Z,66.89
2023-04-15T14:30:34.161Z,68.17
2023-04-15T14:33:43.184Z,68.88
2023-04-15T14:36:59.905Z,70.41
2023-04-15T14:40:27.856Z,71.16
2023-04-15T14:43:42.866Z,70.92
2023-04-15T14:47:02.432Z,70.64
2023-04-15T14:50:11.221Z,70.61
2023-04-15T14:53:19.526Z,70.66
2023-04-15T14:56:34.887Z,71.00
2023-04-15T14:59:39.141Z,70.54
2023-04-15T15:02:54.770Z,70.25
2023-04-15T15:05:57.106Z,69.80
2023-04-15T15:09:11.925Z,69.86
2023-04-15T15:12:14.057Z,69.37
2023-04-15T15:15:29.304Z,67.56
2023-04-15T15:18:31.904Z,66.63
2023-04-15T15:21:51.002Z,66.43
2023-04-15T15:24:52.890Z,66.97
2023-04-15T15:28:07.960Z,67.76
2023-04-15T15:34:57.230Z,69.30
2023-04-15T15:38:11.920Z,70.09
2023-04-15T15:41:46.886Z,70.51
2023-04-15T15:44:58.180Z,71.44
2023-04-15T15:48:13.050Z,71.63
2023-04-15T15:51:21.909Z,72.46
2023-04-15T15:54:33.225Z,72.41
2023-04-15T15:57:40.907Z,73.74
2023-04-15T16:00:58.773Z,74.28
2023-04-15T16:04:09.372Z,75.02
2023-04-15T16:07:23.958Z,75.82
2023-04-15T16:10:33.125Z,78.49
2023-04-15T16:13:41.960Z,80.92
2023-04-15T16:17:00.472Z,82.68
2023-04-15T16:20:02.223Z,84.76
2023-04-15T16:23:21.975Z,85.48
2023-04-15T16:26:32.942Z,86.32
2023-04-15T16:29:48.931Z,83.93
2023-04-15T16:33:04.984Z,84.70
2023-04-15T16:36:06.950Z,84.83
2023-04-15T16:39:22.269Z,85.07
2023-04-15T16:42:43.948Z,84.33
2023-04-15T16:45:58.977Z,84.64
2023-04-15T16:49:07.958Z,84.71
2023-04-15T16:52:16.506Z,85.35
2023-04-15T16:55:24.961Z,86.42
2023-04-15T16:58:34.451Z,86.63
2023-04-15T17:01:43.001Z,87.19
2023-04-15T17:05:00.397Z,87.63
2023-04-15T17:08:02.052Z,87.72
2023-04-15T17:11:17.158Z,88.68
2023-04-15T17:14:26.968Z,88.92
2023-04-15T17:17:35.523Z,89.05
2023-04-15T17:20:44.018Z,89.95
2023-04-15T17:23:52.807Z,90.72
2023-04-15T17:27:03.214Z,91.76
2023-04-15T17:30:18.036Z,92.17
2023-04-15T17:34:00.870Z,92.90
2023-04-15T17:37:01.970Z,93.96
2023-04-15T17:40:04.828Z,93.20
2023-04-15T17:43:27.977Z,93.72
2023-04-15T17:46:36.054Z,93.90
2023-04-15T17:49:44.576Z,92.67
2023-04-15T17:52:52.998Z,91.65
2023-04-15T17:56:01.521Z,91.52
2023-04-15T17:59:19.223Z,90.92
2023-04-15T18:02:27.884Z,91.74
2023-04-15T18:05:45.127Z,91.97
2023-04-15T18:08:47.548Z,92.23
2023-04-15T18:12:02.238Z,92.87
2023-04-15T18:15:04.324Z,92.64
2023-04-15T18:18:21.109Z,92.70
2023-04-15T18:21:31.012Z,93.08
2023-04-15T18:24:50.028Z,92.92
2023-04-15T18:27:51.758Z,92.99
2023-04-15T18:31:06.147Z,93.54
2023-04-15T18:34:07.970Z,93.03
2023-04-15T18:37:27.998Z,92.74
2023-04-15T18:40:29.765Z,93.02
2023-04-15T18:44:01.973Z,92.69
2023-04-15T18:47:10.008Z,92.07
2023-04-15T18:50:20.062Z,91.84
2023-04-15T18:53:28.086Z,91.45
2023-04-15T18:56:36.567Z,91.50
2023-04-15T18:59:52.269Z,91.23
2023-04-15T19:03:00.665Z,90.87
2023-04-15T19:06:15.030Z,90.96
2023-04-15T19:09:24.346Z,90.94
2023-04-15T19:12:35.025Z,90.38
2023-04-15T19:15:44.154Z,90.14
2023-04-15T19:18:59.266Z,90.02
2023-04-15T19:22:15.014Z,90.10
2023-04-15T19:25:23.747Z,89.86
2023-04-15T19:28:31.721Z,90.27
2023-04-15T19:31:55.473Z,89.93
2023-04-15T19:35:12.039Z,89.90
2023-04-15T19:38:27.043Z,90.16
2023-04-15T19:41:42.114Z,89.61
2023-04-15T19:44:57.045Z,89.54
2023-04-15T19:48:12.217Z,90.37
2023-04-15T19:51:31.064Z,90.32
2023-04-15T19:54:39.605Z,89.95
2023-04-15T19:57:48.069Z,89.45
2023-04-15T20:01:05.110Z,89.13
2023-04-15T20:18:28.033Z,88.30
2023-04-15T20:21:44.473Z,88.21
2023-04-15T20:24:59.015Z,88.71
2023-04-15T20:28:14.009Z,88.54
2023-04-15T20:31:15.927Z,88.93
2023-04-15T20:34:31.400Z,88.71
2023-04-15T20:37:40.026Z,88.42
2023-04-15T20:40:49.873Z,88.46
2023-04-15T20:43:59.021Z,88.73
2023-04-15T20:47:10.078Z,88.51
2023-04-15T20:50:20.253Z,88.66
2023-04-15T20:53:35.533Z,89.09
2023-04-15T20:56:39.821Z,89.08
2023-04-15T20:59:55.036Z,89.16
2023-04-15T21:02:56.863Z,89.40
2023-04-15T21:06:12.102Z,89.23
2023-04-15T21:09:14.151Z,88.99
2023-04-15T21:12:29.054Z,89.28
2023-04-15T21:15:30.721Z,89.95
2023-04-15T21:18:53.266Z,89.96
2023-04-15T21:22:01.428Z,90.13
2023-04-15T21:25:09.981Z,89.18
2023-04-15T21:28:29.124Z,89.00
2023-04-15T21:31:41.358Z,88.79
2023-04-15T21:34:49.084Z,88.86
2023-04-15T21:38:04.179Z,88.96
2023-04-15T21:41:05.856Z,88.86
2023-04-15T21:44:21.090Z,88.94
2023-04-15T21:47:30.103Z,88.69
2023-04-15T21:50:39.112Z,89.09
2023-04-15T21:53:47.377Z,89.77
2023-04-15T21:57:02.286Z,89.30
2023-04-15T22:00:14.255Z,88.81
2023-04-15T22:03:30.235Z,89.33
2023-04-15T22:06:38.050Z,89.20
2023-04-15T22:09:46.797Z,88.96
2023-04-15T22:12:55.095Z,88.94
2023-04-15T22:16:10.081Z,89.05
2023-04-15T22:19:32.062Z,89.41
2023-04-15T22:22:33.828Z,89.49
2023-04-15T22:25:59.172Z,89.48
2023-04-15T22:29:00.998Z,89.37
2023-04-15T22:32:17.073Z,89.51
2023-04-15T22:35:18.666Z,88.78
2023-04-15T22:38:33.073Z,88.80
2023-04-15T22:41:42.592Z,88.88
2023-04-15T22:44:51.292Z,89.09
2023-04-15T22:47:59.134Z,89.74
2023-04-15T22:51:08.685Z,89.94
2023-04-15T22:54:19.743Z,90.61
2023-04-15T22:57:28.380Z,90.82
2023-04-15T23:00:39.932Z,91.28
2023-04-15T23:03:55.925Z,92.11
2023-04-15T23:07:14.092Z,92.82
2023-04-15T23:10:23.060Z,93.12
2023-04-15T23:13:38.325Z,93.29
2023-04-15T23:16:46.092Z,93.13
2023-04-15T23:20:04.306Z,92.81
2023-04-15T23:23:12.922Z,93.28
2023-04-15T23:26:22.097Z,93.27
2023-04-15T23:29:37.110Z,93.06
2023-04-15T23:32:46.687Z,93.03
2023-04-15T23:36:01.148Z,93.69
2023-04-15T23:39:02.839Z,93.91
2023-04-15T23:42:18.073Z,94.08
2023-04-15T23:45:19.961Z,94.53
2023-04-15T23:48:35.125Z,94.99
2023-04-15T23:51:43.142Z,94.85
2023-04-15T23:54:58.121Z,95.14
2023-04-15T23:57:59.776Z,95.01
